Bookmark and Share
Track history (hours):
 

Sankoushin

Last reported at 2014-Apr-15 05:32 UTC. Time now 2014-Apr-16 07:42 UTC.
Position N 34°51' E 139°38'.

Length 71 m; draft 4.2 m.

Type: Cargo ship. MMSI: 431000269.

NotesDate/timePositionNaut miles runAvg speedWind from/ knotsBaromVisibWave heightAir tempDewpointWater temp
2014-Apr-15 05:32N 34°51' E 139°38'83 8.3
2014-Apr-14 19:33N 35°55' E 140°42'1 0.6
2014-Apr-14 17:30N 35°56' E 140°40'0 0.0
2014-Apr-14 13:30N 35°56' E 140°40'0 0.0
2014-Apr-14 08:30N 35°56' E 140°40'  
2014-Apr-11 22:23N 35°28' E 140°42'1611.9
2014-Apr-11 21:04N 35°15' E 140°31'2112.0
2014-Apr-11 19:21N 35°01' E 140°12'1011.5
2014-Apr-11 18:30N 34°56' E 140°02'1210.3
2014-Apr-11 17:19N 34°53' E 139°48'1110.2
2014-Apr-11 16:14N 35°04' E 139°44'812.2
2014-Apr-11 15:33N 35°12' E 139°46'1111.2
2014-Apr-11 14:33N 35°23' E 139°42'8 8.0
2014-Apr-11 13:33N 35°22' E 139°52'1 1.0
2014-Apr-11 12:33N 35°22' E 139°53'0 0.0
2014-Apr-11 11:33N 35°22' E 139°53'0 0.0
2014-Apr-11 10:33N 35°22' E 139°53'0 0.0
2014-Apr-11 09:33N 35°22' E 139°53'0 0.0
2014-Apr-11 08:33N 35°22' E 139°53'0 0.0
2014-Apr-11 07:33N 35°22' E 139°53'0 0.0
2014-Apr-11 06:33N 35°22' E 139°53'0 0.0
2014-Apr-11 05:33N 35°22' E 139°53'0 0.0
2014-Apr-11 04:33N 35°22' E 139°53'0 0.0
2014-Apr-11 03:33N 35°22' E 139°53'0 0.0
2014-Apr-11 02:33N 35°22' E 139°53'0 0.0
2014-Apr-11 01:33N 35°22' E 139°53'0 0.0
2014-Apr-11 00:33N 35°22' E 139°53'0 0.0
2014-Apr-10 23:33N 35°22' E 139°53'0 0.0
2014-Apr-10 22:33N 35°22' E 139°53'0 0.0
2014-Apr-10 21:33N 35°22' E 139°53'0 0.0
2014-Apr-10 20:33N 35°22' E 139°53'0 0.0
2014-Apr-10 19:33N 35°22' E 139°53'0 0.0
2014-Apr-10 18:33N 35°22' E 139°53'0 0.0
2014-Apr-10 17:33N 35°22' E 139°53'0 0.0
2014-Apr-10 16:33N 35°22' E 139°53'0 0.0
2014-Apr-10 15:33N 35°22' E 139°53'0 0.0
2014-Apr-10 14:33N 35°22' E 139°53'1 1.4
2014-Apr-10 13:33N 35°22' E 139°52'2 1.6
2014-Apr-10 12:33N 35°24' E 139°51'0 0.0
2014-Apr-10 11:33N 35°24' E 139°51'0 0.0
2014-Apr-10 10:33N 35°24' E 139°51'0 0.0
2014-Apr-10 09:34N 35°24' E 139°51'0 0.0
2014-Apr-10 08:33N 35°24' E 139°51'0 0.1
2014-Apr-10 07:33N 35°24' E 139°51'0 0.0
2014-Apr-10 06:33N 35°24' E 139°51'0 0.0
2014-Apr-10 05:33N 35°24' E 139°51'0 0.0
2014-Apr-10 04:33N 35°24' E 139°51'0 0.0
2014-Apr-10 03:33N 35°24' E 139°51'0 0.0
2014-Apr-10 02:33N 35°24' E 139°51'0 0.0
2014-Apr-10 01:33N 35°24' E 139°51'0 0.0
2014-Apr-10 00:33N 35°24' E 139°51'0 0.0
2014-Apr-09 23:33N 35°24' E 139°51'0 0.1
2014-Apr-09 22:33N 35°24' E 139°51'0 0.0
2014-Apr-09 21:33N 35°24' E 139°51'0 0.0
2014-Apr-09 20:33N 35°24' E 139°51'0 0.0
2014-Apr-09 19:33N 35°24' E 139°51'0 0.1
2014-Apr-09 18:33N 35°24' E 139°51'0 0.0
2014-Apr-09 17:33N 35°24' E 139°51'0 0.0
2014-Apr-09 16:32N 35°24' E 139°51'0 0.1
2014-Apr-09 15:33N 35°24' E 139°51'0 0.0
2014-Apr-09 14:33N 35°24' E 139°51'0 0.0
2014-Apr-09 13:33N 35°24' E 139°51'0 0.0
2014-Apr-09 12:33N 35°24' E 139°51'0 0.0
2014-Apr-09 11:33N 35°24' E 139°51'0 0.0
2014-Apr-09 10:33N 35°24' E 139°51'0 0.0
2014-Apr-09 09:33N 35°24' E 139°51'0 0.0
2014-Apr-09 08:33N 35°24' E 139°51'0 0.0
2014-Apr-09 07:33N 35°24' E 139°51'1110.6
2014-Apr-09 06:33N 35°34' E 139°51'4 4.1
2014-Apr-09 05:33N 35°38' E 139°48'0 0.0
2014-Apr-09 04:33N 35°38' E 139°48'0 0.0
2014-Apr-09 03:33N 35°38' E 139°48'0 0.0
2014-Apr-09 02:33N 35°38' E 139°48'0 0.0
2014-Apr-09 01:33N 35°38' E 139°48'0 0.0
2014-Apr-09 00:33N 35°38' E 139°48'0 0.0
2014-Apr-08 23:33N 35°38' E 139°48'3 3.4
2014-Apr-08 22:33N 35°35' E 139°50'1 0.8
2014-Apr-08 21:33N 35°34' E 139°50'0 0.0
2014-Apr-08 20:33N 35°34' E 139°50'0 0.0
2014-Apr-08 19:33N 35°34' E 139°50'0 0.0
2014-Apr-08 18:33N 35°34' E 139°50'0 0.0
2014-Apr-08 17:33N 35°34' E 139°50'0 0.0
2014-Apr-08 16:33N 35°34' E 139°50'0 0.0
2014-Apr-08 15:33N 35°34' E 139°50'0 0.0
2014-Apr-08 14:33N 35°34' E 139°50'0 0.0
2014-Apr-08 13:33N 35°34' E 139°50'0 0.0
2014-Apr-08 12:33N 35°34' E 139°50'0 0.0
2014-Apr-08 11:33N 35°34' E 139°50'0 0.0
2014-Apr-08 10:33N 35°34' E 139°50'3 3.4
2014-Apr-08 09:33N 35°31' E 139°50'9 9.4
2014-Apr-08 08:33N 35°29' E 139°39'0 0.0
2014-Apr-08 07:33N 35°29' E 139°39'0 0.0
2014-Apr-08 06:33N 35°29' E 139°39'0 0.4
2014-Apr-08 05:33N 35°28' E 139°40'3 2.9
2014-Apr-08 04:33N 35°26' E 139°42'0 0.0
2014-Apr-08 03:33N 35°26' E 139°42'0 0.0
2014-Apr-08 02:33N 35°26' E 139°42'0 0.0
2014-Apr-08 01:33N 35°26' E 139°42'6 5.6
2014-Apr-08 00:33N 35°20' E 139°43'1110.7
2014-Apr-07 23:33N 35°10' E 139°46'1110.9
2014-Apr-07 22:33N 35°01' E 139°38'  

Dump ship's entire track history

sailing weather and tide predictions

Sankoushin — JD2465 — position and weather